Seguin's Hourly Summary for Saturday, August 29, 2026
Hour Temp
(f)
RH
(%)
Solar Rad.
(MJ/m2)
Rainfall
(in)
Wind
(mph)
Battery
(volts)
8/29/2026 12:00 AM 77 84 0 0 0 0
8/29/2026 1:00 AM 76 85 0 0 0 0
8/29/2026 2:00 AM 75 85 0 0 0 0
8/29/2026 3:00 AM 75 88 0 0 0 0
8/29/2026 4:00 AM 72 91 0 0 0 0
8/29/2026 5:00 AM 73 91 0 0 0 0
8/29/2026 6:00 AM 72 93 0 0 0 0
8/29/2026 7:00 AM 71 92 0 0 0 0
8/29/2026 8:00 AM 74 92 0.11 0 0 0
8/29/2026 9:00 AM 79 85 0.29 0 0 0
8/29/2026 10:00 AM 84 69 0.48 0 0.37 0
8/29/2026 11:00 AM 88 54 0.64 0 0 0
8/29/2026 12:00 PM 90 48 0.81 0 2.38 0
8/29/2026 1:00 PM 91 45 0.58 0 3.76 0
8/29/2026 2:00 PM 94 38 0.8 0 0.25 0
8/29/2026 3:00 PM 96 35 0.57 0 2.81 0
8/29/2026 4:00 PM 95 35 0.16 0 1.49 0
8/29/2026 5:00 PM 98 31 0.59 0 1.88 0
8/29/2026 6:00 PM 97 31 0.1 0 0 0
8/29/2026 7:00 PM 93 43 0.02 0 0 0
8/29/2026 8:00 PM 91 46 0 0 2.91 0
8/29/2026 9:00 PM 89 49 0 0 0.01 0
8/29/2026 10:00 PM 87 54 0 0 6.37 0
8/29/2026 11:00 PM 84 60 0 0 0.92 0
Data Summary 84 63 5.15 0.00 0.96 0.00